createdAt,value
2023-05-10T00:04:51.779Z,12.42
2023-05-10T00:09:54.266Z,12.39
2023-05-10T00:14:56.752Z,12.39
2023-05-10T00:20:01.343Z,12.33
2023-05-10T00:25:04.016Z,12.32
2023-05-10T00:30:08.234Z,12.29
2023-05-10T00:35:12.103Z,12.24
2023-05-10T00:40:15.410Z,12.15
2023-05-10T00:45:18.048Z,12.05
2023-05-10T00:50:21.994Z,11.98
2023-05-10T00:55:24.762Z,11.91
2023-05-10T01:00:27.325Z,11.84
2023-05-10T01:05:31.249Z,11.74
2023-05-10T01:10:33.863Z,11.70
2023-05-10T01:15:37.588Z,11.66
2023-05-10T01:20:47.261Z,11.62
2023-05-10T01:26:15.880Z,11.57
2023-05-10T01:31:37.860Z,11.49
2023-05-10T01:36:47.444Z,11.43
2023-05-10T01:41:55.033Z,11.41
2023-05-10T01:47:09.308Z,11.44
2023-05-10T01:52:16.775Z,11.36
2023-05-10T01:57:22.286Z,11.28
2023-05-10T02:02:27.810Z,11.21
2023-05-10T02:07:34.197Z,11.12
2023-05-10T02:12:38.725Z,11.08
2023-05-10T02:17:42.515Z,10.99
2023-05-10T02:22:47.715Z,10.93
2023-05-10T02:27:51.831Z,10.85
2023-05-10T02:32:55.120Z,10.83
2023-05-10T02:38:00.714Z,10.77
2023-05-10T02:43:04.678Z,10.71
2023-05-10T02:48:07.793Z,10.65
2023-05-10T02:53:20.109Z,10.63
2023-05-10T02:58:23.681Z,10.58
2023-05-10T03:03:26.225Z,10.56
2023-05-10T03:08:30.898Z,10.51
2023-05-10T03:13:41.599Z,10.47
2023-05-10T03:18:46.782Z,10.39
2023-05-10T03:23:58.487Z,10.35
2023-05-10T03:29:02.127Z,10.32
2023-05-10T03:34:04.632Z,10.31
2023-05-10T03:39:08.474Z,10.26
2023-05-10T03:44:11.619Z,10.23
2023-05-10T03:49:14.267Z,10.22
2023-05-10T03:54:18.331Z,10.22
2023-05-10T03:59:21.011Z,10.26
2023-05-10T04:04:24.119Z,10.33
2023-05-10T04:09:28.229Z,10.36
2023-05-10T04:14:30.740Z,10.42
2023-05-10T04:19:33.737Z,10.48
2023-05-10T04:24:37.595Z,10.55
2023-05-10T04:29:40.218Z,10.63
2023-05-10T04:34:42.706Z,10.73
2023-05-10T04:39:46.621Z,10.85
2023-05-10T04:44:49.134Z,10.99
2023-05-10T04:49:51.649Z,11.15
2023-05-10T04:54:55.655Z,11.35
2023-05-10T04:59:58.147Z,11.57
2023-05-10T05:05:00.651Z,11.76
2023-05-10T05:10:04.704Z,11.93
2023-05-10T05:15:09.883Z,12.10
2023-05-10T05:20:13.962Z,12.25
2023-05-10T05:25:17.904Z,12.41
2023-05-10T05:30:20.836Z,12.56
2023-05-10T05:35:23.370Z,12.73
2023-05-10T05:40:27.401Z,12.88
2023-05-10T05:45:29.968Z,13.03
2023-05-10T05:50:32.523Z,13.19
2023-05-10T05:55:36.350Z,13.38
2023-05-10T06:00:38.912Z,13.54
2023-05-10T06:05:41.419Z,13.71
2023-05-10T06:10:45.415Z,13.89
2023-05-10T06:15:48.019Z,14.09
2023-05-10T06:20:51.458Z,14.24
2023-05-10T06:25:55.378Z,14.49
2023-05-10T06:30:57.869Z,14.72
2023-05-10T06:36:00.459Z,14.88
2023-05-10T06:41:04.285Z,15.02
2023-05-10T06:46:06.955Z,15.18
2023-05-10T06:51:09.518Z,15.42
2023-05-10T06:56:13.313Z,15.60
2023-05-10T07:01:16.061Z,15.77
2023-05-10T07:06:29.418Z,16.00
2023-05-10T07:11:38.322Z,16.32
2023-05-10T07:16:41.014Z,16.54
2023-05-10T07:21:44.292Z,16.44
2023-05-10T07:26:48.148Z,16.52
2023-05-10T07:31:50.662Z,16.92
2023-05-10T07:36:53.267Z,17.24
2023-05-10T07:41:57.852Z,17.42
2023-05-10T07:47:00.396Z,17.81
2023-05-10T07:52:02.888Z,18.20
2023-05-10T07:57:07.203Z,18.57
2023-05-10T08:02:09.730Z,18.47
2023-05-10T08:07:12.281Z,18.75
2023-05-10T08:12:16.116Z,19.04
2023-05-10T08:17:20.058Z,19.12
2023-05-10T08:22:23.185Z,19.56
2023-05-10T08:27:27.057Z,19.66
2023-05-10T08:32:29.581Z,19.60
2023-05-10T08:37:33.227Z,19.82
2023-05-10T08:42:38.780Z,20.26
2023-05-10T08:47:41.610Z,20.34
2023-05-10T08:52:44.751Z,20.30
2023-05-10T08:57:48.820Z,20.25
2023-05-10T09:02:51.869Z,20.06
2023-05-10T09:07:54.746Z,20.26
2023-05-10T09:12:59.782Z,20.48
2023-05-10T09:18:03.351Z,20.48
2023-05-10T09:23:05.996Z,20.55
2023-05-10T09:28:10.840Z,20.62
2023-05-10T09:33:13.346Z,20.97
2023-05-10T09:38:16.309Z,21.66
2023-05-10T09:43:20.138Z,22.14
2023-05-10T09:48:26.686Z,22.11
2023-05-10T09:53:29.230Z,22.15
2023-05-10T09:58:33.101Z,22.63
2023-05-10T10:03:35.781Z,22.97
2023-05-10T10:08:38.772Z,23.15
2023-05-10T10:13:42.691Z,23.33
2023-05-10T10:18:45.519Z,23.45
2023-05-10T10:23:48.457Z,23.61
2023-05-10T10:29:02.183Z,23.70
2023-05-10T10:34:07.983Z,23.80
2023-05-10T10:39:12.377Z,23.81
2023-05-10T10:44:36.398Z,23.87
2023-05-10T10:49:44.806Z,23.80
2023-05-10T10:54:52.923Z,23.92
2023-05-10T11:00:20.628Z,24.14
2023-05-10T11:05:37.999Z,24.28
2023-05-10T11:10:42.077Z,24.42
2023-05-10T11:15:51.681Z,24.55
2023-05-10T11:20:57.026Z,24.61
2023-05-10T11:26:00.722Z,24.73
2023-05-10T11:31:04.718Z,24.87
2023-05-10T11:36:07.802Z,24.89
2023-05-10T11:41:10.990Z,25.06
2023-05-10T11:46:15.373Z,25.21
2023-05-10T11:51:22.454Z,25.38
2023-05-10T11:56:27.000Z,25.53
2023-05-10T12:01:31.006Z,25.69
2023-05-10T12:06:39.640Z,25.74
2023-05-10T12:11:44.329Z,26.02
2023-05-10T12:16:49.824Z,26.17
2023-05-10T12:21:52.414Z,26.34
2023-05-10T12:26:54.901Z,26.48
2023-05-10T12:32:00.851Z,26.50
2023-05-10T12:37:04.523Z,26.51
2023-05-10T12:42:07.303Z,26.60
2023-05-10T12:47:11.722Z,26.49
2023-05-10T12:52:14.318Z,26.47
2023-05-10T12:57:16.830Z,26.52
2023-05-10T13:02:21.947Z,26.63
2023-05-10T13:07:24.438Z,26.73
2023-05-10T13:12:27.195Z,26.65
2023-05-10T13:17:32.232Z,26.81
2023-05-10T13:22:40.633Z,27.00
2023-05-10T13:27:43.457Z,27.13
2023-05-10T13:32:47.519Z,27.18
2023-05-10T13:37:50.027Z,27.15
2023-05-10T13:42:53.961Z,27.02
2023-05-10T13:47:58.267Z,26.98
2023-05-10T13:53:01.096Z,27.07
2023-05-10T13:58:03.631Z,27.20
2023-05-10T14:03:10.029Z,27.30
2023-05-10T14:08:14.141Z,27.39
2023-05-10T14:13:17.160Z,27.28
2023-05-10T14:18:20.995Z,27.13
2023-05-10T14:23:25.163Z,27.07
2023-05-10T14:28:27.738Z,27.15
2023-05-10T14:33:31.604Z,27.40
2023-05-10T14:38:34.217Z,27.65
2023-05-10T14:43:37.571Z,27.75
2023-05-10T14:48:41.414Z,27.96
2023-05-10T14:53:44.679Z,28.10
2023-05-10T14:58:47.196Z,27.87
2023-05-10T15:03:51.207Z,28.06
2023-05-10T15:08:54.264Z,28.09
2023-05-10T15:13:57.132Z,28.08
2023-05-10T15:19:01.107Z,27.88
2023-05-10T15:24:03.766Z,27.89
2023-05-10T15:29:06.294Z,27.73
2023-05-10T15:34:10.173Z,27.60
2023-05-10T15:39:12.987Z,27.71
2023-05-10T15:44:15.500Z,27.61
2023-05-10T15:49:19.333Z,27.53
2023-05-10T15:54:21.856Z,27.51
2023-05-10T15:59:24.358Z,27.33
2023-05-10T16:04:28.206Z,27.14
2023-05-10T16:09:30.760Z,26.87
2023-05-10T16:14:33.371Z,26.65
2023-05-10T16:19:37.271Z,26.35
2023-05-10T16:24:39.787Z,26.13
2023-05-10T16:29:42.280Z,25.77
2023-05-10T16:34:46.135Z,25.44
2023-05-10T16:39:48.978Z,25.02
2023-05-10T16:44:51.470Z,24.78
2023-05-10T16:49:56.089Z,24.47
2023-05-10T16:54:58.874Z,24.26
2023-05-10T17:00:01.486Z,24.18
2023-05-10T17:05:06.195Z,24.08
2023-05-10T17:10:09.576Z,23.87
2023-05-10T17:15:12.653Z,23.59
2023-05-10T17:20:16.681Z,23.37
2023-05-10T17:25:19.621Z,23.20
2023-05-10T17:30:26.284Z,22.95
2023-05-10T17:35:31.430Z,22.85
2023-05-10T17:40:33.977Z,22.79
2023-05-10T17:45:37.079Z,22.67
2023-05-10T17:50:42.720Z,22.24
2023-05-10T17:55:45.278Z,21.96
2023-05-10T18:00:47.807Z,21.75
2023-05-10T18:05:51.921Z,21.53
2023-05-10T18:10:54.445Z,21.47
2023-05-10T18:15:57.041Z,21.37
2023-05-10T18:21:01.036Z,21.33
2023-05-10T18:26:03.719Z,21.25
2023-05-10T18:31:06.337Z,21.11
2023-05-10T18:36:10.438Z,20.96
2023-05-10T18:41:14.524Z,20.74
2023-05-10T18:46:17.269Z,20.55
2023-05-10T18:51:22.136Z,20.48
2023-05-10T18:56:24.805Z,20.44
2023-05-10T19:01:27.364Z,20.39
2023-05-10T19:06:31.447Z,20.32
2023-05-10T19:11:34.510Z,20.21
2023-05-10T19:16:37.239Z,20.06
2023-05-10T19:21:41.206Z,19.93
2023-05-10T19:26:43.726Z,19.89
2023-05-10T19:31:46.463Z,19.88
2023-05-10T19:36:50.702Z,19.76
2023-05-10T19:41:53.408Z,19.72
2023-05-10T19:46:56.195Z,19.69
2023-05-10T19:52:00.074Z,19.67
2023-05-10T19:57:02.639Z,19.60
2023-05-10T20:02:05.350Z,19.54
2023-05-10T20:07:14.668Z,19.49
2023-05-10T20:12:18.819Z,19.44
2023-05-10T20:17:23.632Z,19.36
2023-05-10T20:22:29.686Z,19.26
2023-05-10T20:27:41.559Z,19.17
2023-05-10T20:32:44.535Z,19.07
2023-05-10T20:37:48.623Z,18.96
2023-05-10T20:42:53.887Z,18.79
2023-05-10T20:47:56.988Z,18.46
2023-05-10T20:53:02.093Z,18.33
2023-05-10T20:58:05.083Z,18.31
2023-05-10T21:03:07.955Z,18.23
2023-05-10T21:08:11.806Z,18.14
2023-05-10T21:13:14.409Z,17.87
2023-05-10T21:18:16.973Z,17.67
2023-05-10T21:23:20.867Z,17.66
2023-05-10T21:28:23.430Z,17.69
2023-05-10T21:33:25.959Z,17.73
2023-05-10T21:38:29.814Z,17.71
2023-05-10T21:43:32.300Z,17.66
2023-05-10T21:48:34.813Z,17.53
2023-05-10T21:53:40.411Z,17.47
2023-05-10T21:58:42.925Z,17.46
2023-05-10T22:03:45.717Z,17.45
2023-05-10T22:08:49.576Z,17.40
2023-05-10T22:13:52.078Z,17.33
2023-05-10T22:18:55.053Z,17.33
2023-05-10T22:23:58.986Z,17.33
2023-05-10T22:29:01.619Z,17.32
2023-05-10T22:34:04.121Z,17.29
2023-05-10T22:39:08.307Z,17.26
2023-05-10T22:44:10.808Z,17.17
2023-05-10T22:49:13.888Z,17.09
2023-05-10T22:54:17.735Z,16.98
2023-05-10T22:59:20.757Z,16.95
2023-05-10T23:04:23.291Z,16.82
2023-05-10T23:09:27.184Z,16.80
2023-05-10T23:14:30.087Z,16.87
2023-05-10T23:19:32.585Z,16.86
2023-05-10T23:24:36.880Z,16.88
2023-05-10T23:29:39.386Z,16.88
2023-05-10T23:34:41.879Z,16.86
2023-05-10T23:39:45.710Z,16.77
2023-05-10T23:44:48.187Z,16.66
2023-05-10T23:49:50.988Z,16.59
2023-05-10T23:54:54.987Z,16.52
2023-05-10T23:59:57.493Z,16.44
